createdAt,value
2023-04-26T00:02:27.976Z,63.70
2023-04-26T00:04:58.884Z,63.70
2023-04-26T00:07:28.719Z,63.50
2023-04-26T00:09:56.878Z,63.50
2023-04-26T00:12:24.988Z,63.60
2023-04-26T00:14:53.064Z,63.70
2023-04-26T00:17:21.233Z,63.60
2023-04-26T00:19:51.200Z,63.50
2023-04-26T00:22:19.248Z,63.60
2023-04-26T00:24:47.506Z,63.60
2023-04-26T00:27:15.795Z,63.60
2023-04-26T00:29:43.910Z,63.40
2023-04-26T00:32:12.080Z,63.50
2023-04-26T00:34:40.317Z,63.60
2023-04-26T00:37:09.919Z,63.60
2023-04-26T00:39:37.958Z,63.60
2023-04-26T00:42:06.205Z,63.60
2023-04-26T00:44:34.272Z,63.50
2023-04-26T00:47:02.367Z,63.60
2023-04-26T00:49:31.179Z,63.50
2023-04-26T00:52:13.108Z,63.50
2023-04-26T00:54:42.639Z,63.70
2023-04-26T00:57:10.812Z,63.50
2023-04-26T00:59:38.946Z,63.50
2023-04-26T01:02:07.063Z,63.30
2023-04-26T01:04:35.170Z,63.30
2023-04-26T01:07:03.279Z,63.50
2023-04-26T01:09:31.927Z,63.30
2023-04-26T01:12:01.426Z,63.50
2023-04-26T01:14:29.545Z,63.30
2023-04-26T01:16:58.316Z,63.40
2023-04-26T01:19:26.677Z,63.40
2023-04-26T01:21:54.781Z,63.30
2023-04-26T01:24:27.453Z,63.30
2023-04-26T01:26:55.514Z,63.50
2023-04-26T01:29:24.340Z,63.50
2023-04-26T01:31:52.440Z,63.40
2023-04-26T01:34:20.590Z,63.40
2023-04-26T01:36:48.710Z,63.50
2023-04-26T01:39:16.862Z,63.30
2023-04-26T01:42:14.652Z,63.30
2023-04-26T01:44:44.205Z,63.30
2023-04-26T01:47:12.330Z,63.30
2023-04-26T01:49:41.648Z,63.30
2023-04-26T01:52:09.746Z,63.20
2023-04-26T01:54:37.845Z,63.30
2023-04-26T01:57:05.951Z,63.40
2023-04-26T01:59:34.168Z,63.40
2023-04-26T02:02:03.763Z,63.20
2023-04-26T02:04:31.967Z,63.30
2023-04-26T02:07:00.148Z,63.40
2023-04-26T02:09:28.225Z,63.30
2023-04-26T02:11:56.301Z,63.20
2023-04-26T02:14:27.375Z,63.20
2023-04-26T02:16:55.499Z,63.30
2023-04-26T02:19:25.029Z,63.30
2023-04-26T02:21:54.838Z,63.30
2023-04-26T02:24:23.377Z,63.30
2023-04-26T02:26:51.937Z,63.00
2023-04-26T02:29:26.576Z,63.30
2023-04-26T02:32:04.313Z,63.10
2023-04-26T02:34:33.926Z,63.20
2023-04-26T02:37:02.160Z,63.30
2023-04-26T02:39:30.240Z,63.20
2023-04-26T02:41:58.638Z,63.20
2023-04-26T02:44:26.884Z,63.10
2023-04-26T02:46:54.994Z,63.20
2023-04-26T02:49:23.079Z,63.20
2023-04-26T02:51:52.558Z,63.10
2023-04-26T02:54:20.634Z,63.10
2023-04-26T02:56:48.821Z,63.20
2023-04-26T02:59:16.907Z,63.10
2023-04-26T03:01:45.187Z,63.20
2023-04-26T03:04:13.633Z,63.00
2023-04-26T03:06:41.837Z,63.00
2023-04-26T03:09:11.323Z,63.10
2023-04-26T03:11:39.464Z,63.10
2023-04-26T03:14:07.672Z,63.10
2023-04-26T03:16:44.911Z,63.00
2023-04-26T03:19:13.063Z,63.10
2023-04-26T03:21:41.232Z,63.10
2023-04-26T03:24:11.717Z,63.10
2023-04-26T03:26:39.809Z,63.00
2023-04-26T03:29:08.531Z,63.20
2023-04-26T03:31:36.626Z,63.00
2023-04-26T03:34:04.714Z,63.10
2023-04-26T03:36:35.684Z,62.90
2023-04-26T03:39:04.582Z,62.90
2023-04-26T03:41:35.929Z,63.00
2023-04-26T03:44:04.047Z,63.00
2023-04-26T03:46:32.236Z,63.10
2023-04-26T03:49:00.359Z,63.00
2023-04-26T03:51:28.629Z,63.10
2023-04-26T03:53:59.899Z,63.00
2023-04-26T03:56:27.951Z,62.90
2023-04-26T03:58:57.425Z,63.00
2023-04-26T04:01:25.918Z,62.80
2023-04-26T04:03:54.122Z,62.90
2023-04-26T04:06:22.917Z,63.00
2023-04-26T04:08:51.232Z,63.10
2023-04-26T04:11:47.022Z,62.90
2023-04-26T04:14:17.046Z,63.00
2023-04-26T04:16:45.099Z,62.90
2023-04-26T04:19:13.159Z,62.90
2023-04-26T04:21:43.311Z,62.80
2023-04-26T04:24:11.546Z,62.90
2023-04-26T04:26:39.653Z,62.90
2023-04-26T04:29:12.285Z,62.90
2023-04-26T04:31:42.574Z,63.00
2023-04-26T04:34:10.741Z,63.10
2023-04-26T04:36:40.821Z,62.90
2023-04-26T04:39:13.670Z,62.90
2023-04-26T04:41:47.681Z,62.90
2023-04-26T04:44:16.831Z,62.80
2023-04-26T04:46:46.370Z,62.90
2023-04-26T04:49:15.040Z,62.90
2023-04-26T04:51:43.241Z,63.00
2023-04-26T04:54:12.774Z,63.00
2023-04-26T04:56:40.917Z,62.90
2023-04-26T04:59:09.027Z,63.00
2023-04-26T05:01:38.544Z,62.80
2023-04-26T05:04:08.574Z,63.00
2023-04-26T05:06:37.025Z,62.90
2023-04-26T05:09:05.950Z,63.00
2023-04-26T05:11:38.882Z,63.00
2023-04-26T05:14:07.187Z,62.90
2023-04-26T05:16:35.936Z,62.90
2023-04-26T05:19:06.140Z,62.90
2023-04-26T05:21:36.814Z,62.90
2023-04-26T05:24:05.296Z,62.90
2023-04-26T05:26:33.355Z,63.00
2023-04-26T05:29:01.436Z,62.90
2023-04-26T05:31:29.697Z,63.00
2023-04-26T05:33:58.099Z,62.80
2023-04-26T05:36:28.445Z,62.90
2023-04-26T05:38:59.566Z,62.80
2023-04-26T05:41:27.609Z,62.90
2023-04-26T05:43:55.829Z,63.00
2023-04-26T05:46:23.976Z,63.00
2023-04-26T05:48:52.100Z,62.90
2023-04-26T05:51:20.273Z,62.90
2023-04-26T05:53:48.423Z,62.80
2023-04-26T05:56:18.042Z,62.90
2023-04-26T05:58:46.288Z,62.80
2023-04-26T06:01:14.908Z,63.00
2023-04-26T06:03:43.279Z,62.70
2023-04-26T06:06:11.767Z,62.90
2023-04-26T06:08:39.860Z,62.90
2023-04-26T06:11:07.922Z,63.00
2023-04-26T06:13:37.354Z,62.80
2023-04-26T06:16:06.161Z,63.00
2023-04-26T06:18:34.244Z,62.90
2023-04-26T06:21:02.365Z,62.70
2023-04-26T06:23:30.462Z,62.90
2023-04-26T06:26:01.259Z,62.80
2023-04-26T06:28:29.486Z,62.60
2023-04-26T06:30:59.022Z,62.80
2023-04-26T06:33:27.139Z,62.90
2023-04-26T06:35:55.320Z,62.70
2023-04-26T06:38:23.410Z,62.90
2023-04-26T06:40:51.511Z,62.70
2023-04-26T06:43:19.555Z,62.80
2023-04-26T06:45:47.816Z,62.80
2023-04-26T06:48:17.216Z,62.80
2023-04-26T06:50:45.272Z,62.90
2023-04-26T06:53:13.374Z,62.80
2023-04-26T06:55:41.428Z,62.90
2023-04-26T06:58:09.527Z,62.80
2023-04-26T07:00:37.632Z,62.90
2023-04-26T07:03:06.298Z,63.00
2023-04-26T07:05:35.882Z,63.00
2023-04-26T07:08:03.973Z,62.90
2023-04-26T07:10:33.134Z,63.20
2023-04-26T07:13:02.378Z,63.00
2023-04-26T07:15:31.331Z,63.10
2023-04-26T07:17:59.557Z,63.10
2023-04-26T07:20:27.781Z,63.20
2023-04-26T07:22:58.156Z,63.10
2023-04-26T07:25:26.264Z,63.00
2023-04-26T07:27:54.373Z,63.20
2023-04-26T07:30:22.557Z,63.40
2023-04-26T07:32:50.681Z,63.20
2023-04-26T07:35:19.024Z,63.10
2023-04-26T07:37:47.127Z,62.90
2023-04-26T07:40:17.180Z,63.20
2023-04-26T07:42:45.273Z,63.10
2023-04-26T07:45:14.058Z,63.20
2023-04-26T07:47:45.489Z,63.20
2023-04-26T07:50:13.679Z,63.30
2023-04-26T07:52:43.347Z,63.30
2023-04-26T07:55:12.046Z,63.40
2023-04-26T07:57:41.815Z,63.20
2023-04-26T08:00:12.155Z,63.30
2023-04-26T08:02:45.218Z,63.30
2023-04-26T08:05:17.013Z,63.30
2023-04-26T08:07:45.234Z,63.40
2023-04-26T08:10:13.299Z,63.30
2023-04-26T08:12:42.749Z,63.40
2023-04-26T08:15:12.168Z,63.50
2023-04-26T08:17:40.459Z,63.30
2023-04-26T08:20:10.577Z,63.30
2023-04-26T08:22:44.603Z,63.50
2023-04-26T08:25:13.170Z,63.40
2023-04-26T08:27:44.702Z,63.50
2023-04-26T08:30:13.401Z,63.40
2023-04-26T08:32:41.587Z,63.50
2023-04-26T08:35:10.635Z,63.30
2023-04-26T08:37:39.008Z,63.40
2023-04-26T08:40:09.813Z,63.30
2023-04-26T08:42:44.399Z,63.50
2023-04-26T08:45:12.651Z,63.50
2023-04-26T08:47:44.498Z,63.40
2023-04-26T08:50:14.629Z,63.50
2023-04-26T08:52:43.131Z,63.50
2023-04-26T08:55:16.828Z,63.40
2023-04-26T08:57:47.203Z,63.40
2023-04-26T09:00:16.053Z,63.50
2023-04-26T09:02:48.721Z,63.50
2023-04-26T09:05:17.150Z,63.60
2023-04-26T09:07:46.465Z,63.60
2023-04-26T09:10:15.068Z,63.50
2023-04-26T09:12:43.146Z,63.50
2023-04-26T09:15:13.106Z,63.60
2023-04-26T09:17:42.119Z,63.60
2023-04-26T09:20:20.764Z,63.60
2023-04-26T09:22:49.039Z,63.70
2023-04-26T09:25:18.063Z,63.70
2023-04-26T09:27:46.143Z,63.40
2023-04-26T09:30:17.537Z,63.60
2023-04-26T09:32:47.381Z,63.50
2023-04-26T09:35:27.324Z,63.40
2023-04-26T09:38:00.051Z,63.30
2023-04-26T09:40:31.071Z,63.30
2023-04-26T09:43:03.415Z,63.10
2023-04-26T09:45:34.587Z,63.30
2023-04-26T09:48:22.419Z,63.20
2023-04-26T09:50:52.473Z,63.20
2023-04-26T09:53:28.561Z,63.50
2023-04-26T09:55:56.789Z,63.20
2023-04-26T09:58:24.968Z,63.50
2023-04-26T10:00:54.764Z,63.40
2023-04-26T10:03:24.358Z,63.30
2023-04-26T10:05:52.626Z,63.40
2023-04-26T10:08:20.730Z,63.10
2023-04-26T10:10:49.038Z,63.00
2023-04-26T10:13:17.655Z,62.90
2023-04-26T10:15:46.039Z,62.80
2023-04-26T10:18:16.014Z,63.00
2023-04-26T10:20:46.123Z,62.80
2023-04-26T10:23:20.165Z,62.90
2023-04-26T10:25:48.304Z,63.00
2023-04-26T10:28:16.679Z,62.80
2023-04-26T10:30:57.591Z,62.90
2023-04-26T10:33:27.332Z,62.80
2023-04-26T10:36:10.611Z,62.70
2023-04-26T10:38:42.682Z,62.90
2023-04-26T10:41:30.907Z,62.80
2023-04-26T10:43:59.950Z,62.90
2023-04-26T10:46:38.383Z,63.00
2023-04-26T10:49:18.230Z,62.80
2023-04-26T10:52:11.720Z,62.80
2023-04-26T10:54:53.417Z,62.80
2023-04-26T10:57:21.540Z,62.70
2023-04-26T11:00:18.955Z,62.90
2023-04-26T11:02:49.768Z,62.80
2023-04-26T11:05:37.951Z,62.70
2023-04-26T11:08:07.682Z,62.80
2023-04-26T11:10:36.837Z,62.60
2023-04-26T11:13:05.157Z,62.50
2023-04-26T11:15:33.473Z,62.80
2023-04-26T11:18:03.823Z,62.90
2023-04-26T11:20:32.621Z,62.90
2023-04-26T11:23:02.633Z,62.80
2023-04-26T11:25:31.472Z,62.70
2023-04-26T11:28:01.239Z,62.90
2023-04-26T11:30:32.278Z,63.00
2023-04-26T11:33:00.719Z,62.90
2023-04-26T11:35:29.936Z,62.90
2023-04-26T11:38:01.557Z,62.90
2023-04-26T11:40:30.943Z,62.80
2023-04-26T11:43:02.367Z,62.80
2023-04-26T11:45:30.703Z,62.70
2023-04-26T11:47:58.851Z,62.80
2023-04-26T11:50:27.522Z,63.00
2023-04-26T11:52:56.818Z,62.90
2023-04-26T11:55:30.758Z,62.70
2023-04-26T11:57:59.063Z,62.90
2023-04-26T12:00:27.368Z,62.90
2023-04-26T12:02:57.358Z,62.70
2023-04-26T12:05:26.462Z,62.80
2023-04-26T12:07:55.676Z,62.80
2023-04-26T12:10:26.285Z,63.00
2023-04-26T12:12:56.919Z,63.10
2023-04-26T12:15:26.040Z,63.10
2023-04-26T12:17:57.531Z,62.90
2023-04-26T12:20:29.700Z,63.10
2023-04-26T12:23:05.453Z,62.90
2023-04-26T12:25:34.182Z,63.10
2023-04-26T12:28:04.649Z,63.10
2023-04-26T12:30:32.897Z,63.00
2023-04-26T12:33:15.000Z,63.10
2023-04-26T12:35:45.126Z,63.00
2023-04-26T12:38:13.532Z,63.00
2023-04-26T12:40:42.680Z,63.10
2023-04-26T12:43:12.295Z,63.10
2023-04-26T12:45:40.430Z,63.20
2023-04-26T12:48:08.573Z,63.20
2023-04-26T12:50:36.679Z,63.10
2023-04-26T12:53:05.209Z,63.20
2023-04-26T12:55:33.398Z,63.10
2023-04-26T12:58:01.515Z,63.10
2023-04-26T13:00:31.309Z,62.90
2023-04-26T13:02:59.563Z,63.10
2023-04-26T13:06:31.072Z,63.10
2023-04-26T13:08:59.385Z,62.90
2023-04-26T13:11:27.432Z,63.10
2023-04-26T13:13:55.455Z,63.10
2023-04-26T13:16:24.973Z,63.00
2023-04-26T13:18:53.102Z,63.00
2023-04-26T13:21:21.211Z,63.20
2023-04-26T13:23:49.401Z,63.10
2023-04-26T13:26:18.362Z,63.10
2023-04-26T13:28:47.584Z,63.10
2023-04-26T13:31:17.497Z,63.10
2023-04-26T13:33:49.230Z,63.10
2023-04-26T13:36:17.385Z,63.10
2023-04-26T13:38:45.515Z,63.10
2023-04-26T13:41:13.678Z,63.20
2023-04-26T13:43:41.781Z,63.30
2023-04-26T13:46:09.944Z,63.10
2023-04-26T13:48:38.076Z,63.20
2023-04-26T13:51:08.008Z,63.20
2023-04-26T13:53:36.564Z,63.20
2023-04-26T13:56:04.916Z,63.20
2023-04-26T13:58:33.129Z,63.30
2023-04-26T14:01:01.669Z,63.20
2023-04-26T14:03:30.069Z,63.20
2023-04-26T14:05:58.656Z,63.20
2023-04-26T14:08:28.125Z,63.20
2023-04-26T14:10:56.198Z,63.30
2023-04-26T14:13:24.317Z,63.40
2023-04-26T14:15:55.823Z,63.30
2023-04-26T14:18:23.947Z,63.40
2023-04-26T14:20:52.160Z,63.30
2023-04-26T14:23:20.287Z,63.40
2023-04-26T14:25:52.778Z,63.40
2023-04-26T14:28:20.987Z,63.40
2023-04-26T14:30:49.127Z,63.40
2023-04-26T14:33:17.329Z,63.50
2023-04-26T14:35:45.534Z,63.30
2023-04-26T14:38:13.801Z,63.50
2023-04-26T14:40:42.100Z,63.40
2023-04-26T14:43:11.674Z,63.50
2023-04-26T14:45:44.516Z,63.50
2023-04-26T14:48:16.453Z,63.50
2023-04-26T14:50:44.895Z,63.50
2023-04-26T14:53:13.039Z,63.40
2023-04-26T14:55:41.229Z,63.50
2023-04-26T14:58:09.261Z,63.40
2023-04-26T15:00:39.609Z,63.50
2023-04-26T15:03:07.997Z,63.50
2023-04-26T15:05:36.377Z,63.50
2023-04-26T15:08:05.050Z,63.50
2023-04-26T15:10:33.208Z,63.50
2023-04-26T15:13:01.370Z,63.50
2023-04-26T15:15:29.457Z,63.50
2023-04-26T15:17:59.001Z,63.60
2023-04-26T15:20:27.559Z,63.50
2023-04-26T15:22:55.680Z,63.40
2023-04-26T15:25:23.901Z,63.40
2023-04-26T15:27:52.059Z,63.40
2023-04-26T15:30:20.232Z,63.40
2023-04-26T15:32:50.379Z,63.30
2023-04-26T15:35:19.960Z,63.40
2023-04-26T15:37:48.296Z,63.40
2023-04-26T15:40:16.386Z,63.40
2023-04-26T15:42:44.590Z,63.40
2023-04-26T15:45:12.918Z,63.40
2023-04-26T15:47:41.071Z,63.40
2023-04-26T15:50:09.801Z,63.30
2023-04-26T15:52:39.807Z,63.50
2023-04-26T15:55:21.630Z,63.40
2023-04-26T15:57:49.728Z,63.40
2023-04-26T16:00:18.416Z,63.40
2023-04-26T16:02:46.716Z,63.30
2023-04-26T16:05:15.060Z,63.40
2023-04-26T16:07:44.669Z,63.40
2023-04-26T16:10:13.209Z,63.40
2023-04-26T16:12:42.933Z,63.50
2023-04-26T16:15:11.240Z,63.40
2023-04-26T16:17:39.637Z,63.40
2023-04-26T16:20:09.334Z,63.40
2023-04-26T16:22:37.573Z,63.40
2023-04-26T16:25:08.818Z,63.40
2023-04-26T16:27:36.921Z,63.40
2023-04-26T16:30:09.936Z,63.40
2023-04-26T16:32:38.007Z,63.30
2023-04-26T16:35:06.888Z,63.30
2023-04-26T16:37:34.944Z,63.30
2023-04-26T16:40:05.018Z,63.40
2023-04-26T16:42:34.554Z,63.30
2023-04-26T16:45:02.713Z,63.40
2023-04-26T16:47:31.054Z,63.30
2023-04-26T16:49:59.138Z,63.40
2023-04-26T16:52:27.192Z,63.30
2023-04-26T16:54:55.659Z,63.40
2023-04-26T16:57:23.782Z,63.40
2023-04-26T16:59:53.340Z,63.30
2023-04-26T17:02:27.523Z,63.30
2023-04-26T17:04:56.163Z,63.40
2023-04-26T17:07:24.315Z,63.40
2023-04-26T17:09:53.916Z,63.40
2023-04-26T17:12:22.103Z,63.40
2023-04-26T17:14:50.155Z,63.40
2023-04-26T17:17:19.608Z,63.40
2023-04-26T17:19:50.867Z,63.40
2023-04-26T17:22:22.107Z,63.40
2023-04-26T17:24:50.501Z,63.30
2023-04-26T17:27:18.936Z,63.40
2023-04-26T17:29:47.094Z,63.30
2023-04-26T17:32:15.898Z,63.40
2023-04-26T17:34:46.970Z,63.30
2023-04-26T17:37:17.871Z,63.40
2023-04-26T17:39:46.015Z,63.40
2023-04-26T17:42:14.119Z,63.40
2023-04-26T17:44:42.484Z,63.40
2023-04-26T17:47:10.606Z,63.40
2023-04-26T17:49:38.709Z,63.40
2023-04-26T17:52:10.678Z,63.40
2023-04-26T17:54:41.885Z,63.40
2023-04-26T17:57:11.378Z,63.40
2023-04-26T17:59:39.545Z,63.50
2023-04-26T18:02:07.993Z,63.40
2023-04-26T18:04:36.499Z,63.40
2023-04-26T18:07:05.351Z,63.40
2023-04-26T18:09:34.833Z,63.40
2023-04-26T18:12:05.611Z,63.40
2023-04-26T18:14:47.592Z,63.40
2023-04-26T18:17:16.313Z,63.30
2023-04-26T18:19:44.509Z,63.40
2023-04-26T18:22:12.595Z,63.50
2023-04-26T18:24:42.195Z,63.40
2023-04-26T18:27:12.525Z,63.40
2023-04-26T18:29:40.766Z,63.40
2023-04-26T18:32:08.875Z,63.40
2023-04-26T18:34:37.007Z,63.40
2023-04-26T18:37:06.199Z,63.50
2023-04-26T18:39:34.492Z,63.40
2023-04-26T18:42:04.745Z,63.40
2023-04-26T18:44:32.989Z,63.50
2023-04-26T18:47:03.562Z,63.50
2023-04-26T18:49:32.244Z,63.40
2023-04-26T18:52:01.687Z,63.30
2023-04-26T18:54:31.071Z,63.50
2023-04-26T18:57:00.274Z,63.40
2023-04-26T18:59:30.735Z,63.30
2023-04-26T19:01:58.931Z,63.40
2023-04-26T19:04:30.293Z,63.40
2023-04-26T19:06:58.503Z,63.30
2023-04-26T19:09:26.745Z,63.40
2023-04-26T19:11:54.786Z,63.40
2023-04-26T19:14:22.882Z,63.40
2023-04-26T19:16:52.358Z,63.40
2023-04-26T19:19:20.809Z,63.40
2023-04-26T19:21:48.937Z,63.30
2023-04-26T19:24:16.967Z,63.50
2023-04-26T19:26:45.082Z,63.40
2023-04-26T19:29:13.179Z,63.40
2023-04-26T19:31:41.336Z,63.40
2023-04-26T19:34:12.574Z,63.50
2023-04-26T19:36:41.671Z,63.40
2023-04-26T19:39:10.313Z,63.30
2023-04-26T19:41:38.445Z,63.40
2023-04-26T19:44:06.533Z,63.40
2023-04-26T19:46:39.461Z,63.30
2023-04-26T19:49:07.669Z,63.30
2023-04-26T19:51:37.101Z,63.50
2023-04-26T19:54:05.355Z,63.50
2023-04-26T19:56:33.410Z,63.50
2023-04-26T19:59:01.469Z,63.40
2023-04-26T20:01:29.800Z,63.40
2023-04-26T20:03:58.215Z,63.10
2023-04-26T20:06:26.796Z,63.40
2023-04-26T20:08:56.737Z,63.20
2023-04-26T20:11:24.844Z,63.50
2023-04-26T20:13:52.940Z,63.40
2023-04-26T20:16:21.106Z,63.30
2023-04-26T20:18:49.285Z,63.40
2023-04-26T20:21:17.550Z,63.50
2023-04-26T20:23:45.724Z,63.40
2023-04-26T20:26:15.224Z,63.40
2023-04-26T20:28:43.489Z,63.40
2023-04-26T20:31:11.832Z,63.30
2023-04-26T20:33:39.933Z,63.30
2023-04-26T20:36:08.149Z,63.50
2023-04-26T20:38:36.518Z,63.40
2023-04-26T20:41:04.642Z,63.40
2023-04-26T20:43:34.600Z,63.50
2023-04-26T20:46:03.075Z,63.50
2023-04-26T20:48:31.730Z,63.40
2023-04-26T20:51:01.965Z,63.50
2023-04-26T20:53:30.107Z,63.40
2023-04-26T20:55:58.476Z,63.30
2023-04-26T20:58:26.934Z,63.50
2023-04-26T21:00:56.460Z,63.40
2023-04-26T21:03:24.609Z,63.30
2023-04-26T21:05:52.758Z,63.50
2023-04-26T21:08:20.871Z,63.40
2023-04-26T21:10:49.211Z,63.50
2023-04-26T21:13:17.304Z,63.30
2023-04-26T21:15:45.441Z,63.50
2023-04-26T21:18:14.967Z,63.40
2023-04-26T21:20:43.063Z,63.40
2023-04-26T21:23:11.107Z,63.50
2023-04-26T21:25:39.218Z,63.30
2023-04-26T21:28:07.283Z,63.40
2023-04-26T21:30:36.881Z,63.40
2023-04-26T21:33:05.292Z,63.40
2023-04-26T21:35:34.974Z,63.40
2023-04-26T21:38:03.668Z,63.30
2023-04-26T21:40:31.950Z,63.40
2023-04-26T21:43:05.153Z,63.60
2023-04-26T21:45:33.648Z,63.40
2023-04-26T21:48:01.786Z,63.40
2023-04-26T21:50:29.982Z,63.30
2023-04-26T21:52:59.533Z,63.30
2023-04-26T21:55:27.988Z,63.30
2023-04-26T21:57:56.101Z,63.20
2023-04-26T22:00:24.403Z,63.50
2023-04-26T22:02:52.687Z,63.30
2023-04-26T22:05:21.046Z,63.30
2023-04-26T22:07:49.125Z,63.40
2023-04-26T22:10:18.821Z,63.30
2023-04-26T22:12:46.944Z,63.30
2023-04-26T22:15:15.136Z,63.40
2023-04-26T22:17:43.323Z,63.30
2023-04-26T22:20:12.762Z,63.40
2023-04-26T22:22:40.868Z,63.20
2023-04-26T22:25:12.098Z,63.30
2023-04-26T22:27:42.003Z,63.40
2023-04-26T22:30:24.113Z,63.40
2023-04-26T22:32:54.902Z,63.30
2023-04-26T22:35:23.466Z,63.20
2023-04-26T22:37:51.930Z,63.20
2023-04-26T22:40:20.120Z,63.30
2023-04-26T22:42:49.601Z,63.30
2023-04-26T22:45:17.802Z,63.30
2023-04-26T22:47:45.838Z,63.30
2023-04-26T22:50:13.961Z,63.20
2023-04-26T22:52:42.193Z,63.20
2023-04-26T22:55:11.031Z,63.50
2023-04-26T22:57:39.148Z,63.40
2023-04-26T23:00:12.539Z,63.30
2023-04-26T23:02:40.870Z,63.20
2023-04-26T23:05:10.669Z,63.30
2023-04-26T23:07:38.832Z,63.20
2023-04-26T23:10:07.916Z,63.30
2023-04-26T23:12:36.197Z,63.30
2023-04-26T23:15:12.378Z,63.30
2023-04-26T23:17:41.913Z,63.30
2023-04-26T23:20:12.820Z,63.30
2023-04-26T23:22:41.364Z,63.20
2023-04-26T23:25:10.218Z,63.20
2023-04-26T23:27:38.611Z,63.20
2023-04-26T23:30:07.989Z,63.30
2023-04-26T23:32:37.481Z,63.20
2023-04-26T23:35:06.605Z,63.20
2023-04-26T23:37:34.693Z,63.20
2023-04-26T23:40:05.426Z,63.20
2023-04-26T23:42:33.570Z,63.20
2023-04-26T23:45:01.936Z,63.10
2023-04-26T23:47:30.966Z,63.10
2023-04-26T23:50:00.910Z,63.10
2023-04-26T23:52:29.030Z,63.20
2023-04-26T23:54:57.102Z,63.20
2023-04-26T23:57:25.212Z,63.20
2023-04-26T23:59:53.757Z,63.20
